Time;durP1;ratioP1;P1;durP2;ratioP2;P2;SDS_P1;SDS_P2;PMS_P1;PMS_P2;Temp;Humidity;BMP_temperature;BMP_pressure;BME280_temperature;BME280_humidity;BME280_pressure;Samples;Min_cycle;Max_cycle;Signal;HPM_P1;HPM_P2
2023/11/06 05:02:35;;;;;;;3.17;2.72;;;9.10;99.90;;;;;;4875380;23;20756;-74
2023/11/06 05:05:04;;;;;;;4.05;3.55;;;9.00;99.90;;;;;;4856247;29;20232;-74
2023/11/06 05:07:30;;;;;;;3.38;2.90;;;9.10;99.90;;;;;;4855531;29;20317;-73
2023/11/06 05:09:57;;;;;;;3.92;2.72;;;9.00;99.90;;;;;;4859220;29;20209;-74
2023/11/06 05:12:24;;;;;;;2.25;2.15;;;9.00;99.90;;;;;;4840151;29;20240;-73
2023/11/06 05:14:51;;;;;;;3.50;3.25;;;9.00;99.90;;;;;;4865051;23;20306;-74
2023/11/06 05:17:17;;;;;;;3.33;3.13;;;9.00;99.90;;;;;;4866291;29;20236;-74
2023/11/06 05:19:46;;;;;;;2.45;2.25;;;9.10;99.90;;;;;;4866005;29;20220;-74
2023/11/06 05:22:12;;;;;;;2.33;2.22;;;9.00;99.90;;;;;;4863763;29;20221;-73
2023/11/06 05:24:42;;;;;;;2.28;2.10;;;9.00;99.90;;;;;;4865354;29;20239;-74
2023/11/06 05:27:08;;;;;;;3.83;3.22;;;9.00;99.90;;;;;;4866092;29;20295;-73
2023/11/06 05:29:35;;;;;;;2.83;2.60;;;9.10;99.90;;;;;;4863546;29;20315;-74
2023/11/06 05:32:02;;;;;;;5.95;3.30;;;9.10;99.90;;;;;;4859635;29;20319;-74
2023/11/06 05:34:29;;;;;;;3.28;3.05;;;9.10;99.90;;;;;;4862635;29;20232;-74
2023/11/06 05:36:57;;;;;;;4.30;3.13;;;9.20;99.90;;;;;;4864291;29;20212;-73
2023/11/06 05:39:24;;;;;;;3.53;3.25;;;9.20;99.90;;;;;;4857337;29;20213;-73
2023/11/06 05:41:51;;;;;;;3.30;3.08;;;9.20;99.90;;;;;;4860310;29;20209;-73
2023/11/06 05:44:18;;;;;;;2.95;2.75;;;9.30;99.90;;;;;;4862366;29;20684;-73
2023/11/06 05:46:45;;;;;;;4.85;3.30;;;9.30;99.90;;;;;;4862986;29;20238;-73
2023/11/06 05:49:12;;;;;;;2.70;2.67;;;9.40;99.90;;;;;;4863131;29;20329;-73
2023/11/06 05:51:39;;;;;;;3.50;3.30;;;9.50;99.90;;;;;;4863834;29;20228;-73
2023/11/06 05:54:08;;;;;;;4.97;3.00;;;9.40;99.90;;;;;;4864257;29;20304;-73
2023/11/06 05:56:35;;;;;;;3.45;3.25;;;9.50;99.90;;;;;;4865249;29;20239;-73
2023/11/06 05:59:03;;;;;;;2.20;2.00;;;9.50;99.90;;;;;;4862354;29;20213;-74
2023/11/06 06:01:30;;;;;;;4.40;3.55;;;9.60;99.90;;;;;;4861804;29;20220;-74
2023/11/06 06:03:57;;;;;;;4.10;3.40;;;9.60;99.90;;;;;;4863415;29;20305;-74
2023/11/06 06:06:25;;;;;;;4.68;2.97;;;9.60;99.90;;;;;;4863662;29;20764;-74
2023/11/06 06:08:51;;;;;;;3.88;3.58;;;9.60;99.90;;;;;;4861317;29;20578;-73
2023/11/06 06:11:19;;;;;;;2.97;2.67;;;9.60;99.90;;;;;;4857053;29;20213;-75
2023/11/06 06:13:46;;;;;;;3.58;3.05;;;9.70;99.90;;;;;;4854656;29;20708;-74
2023/11/06 06:16:13;;;;;;;3.60;2.72;;;9.70;99.90;;;;;;4861042;29;20227;-75
2023/11/06 06:18:40;;;;;;;3.08;2.50;;;9.70;99.90;;;;;;4861892;29;20210;-74
2023/11/06 06:21:06;;;;;;;4.30;2.63;;;9.70;99.90;;;;;;4859656;29;20214;-74
2023/11/06 06:23:33;;;;;;;4.13;3.40;;;9.80;99.90;;;;;;4861496;29;20278;-74
2023/11/06 06:26:01;;;;;;;2.50;2.40;;;9.80;99.90;;;;;;4861424;29;20314;-73
2023/11/06 06:28:29;;;;;;;2.28;2.25;;;9.80;99.90;;;;;;4862824;29;20213;-73
2023/11/06 06:30:55;;;;;;;2.67;2.50;;;9.90;99.90;;;;;;4865593;29;20217;-74
2023/11/06 06:33:22;;;;;;;4.43;3.08;;;9.90;99.90;;;;;;4860854;29;20221;-74
2023/11/06 06:35:49;;;;;;;2.45;2.45;;;9.90;99.90;;;;;;4862203;29;20238;-73
2023/11/06 06:38:16;;;;;;;4.53;3.10;;;9.90;99.90;;;;;;4862892;29;20676;-72
2023/11/06 06:40:43;;;;;;;7.25;5.07;;;9.90;99.90;;;;;;4863039;29;20214;-72
2023/11/06 06:43:09;;;;;;;3.03;2.83;;;9.90;99.90;;;;;;4860962;29;20219;-74
2023/11/06 06:45:37;;;;;;;3.03;2.40;;;9.90;99.90;;;;;;4864546;29;20295;-72
2023/11/06 06:48:03;;;;;;;2.65;2.47;;;10.00;99.90;;;;;;4865714;29;20490;-72
2023/11/06 06:50:30;;;;;;;2.55;2.20;;;10.00;99.90;;;;;;4866074;29;20220;-74
2023/11/06 06:52:57;;;;;;;7.10;4.57;;;10.00;99.90;;;;;;4863426;29;20245;-74
2023/11/06 06:55:24;;;;;;;7.72;3.63;;;10.00;99.90;;;;;;4861998;29;20230;-73
2023/11/06 06:57:53;;;;;;;1.92;1.92;;;10.00;99.90;;;;;;4860825;29;20321;-73
2023/11/06 07:00:20;;;;;;;2.95;2.75;;;10.00;99.90;;;;;;4858942;29;20744;-74
2023/11/06 07:02:48;;;;;;;3.67;2.25;;;10.10;99.90;;;;;;4859819;29;20588;-74
2023/11/06 07:05:16;;;;;;;5.38;2.28;;;10.10;99.90;;;;;;4860668;29;20456;-74
2023/11/06 07:07:43;;;;;;;2.80;1.95;;;10.10;99.90;;;;;;4860113;29;20214;-74
2023/11/06 07:10:10;;;;;;;5.15;3.42;;;10.20;99.90;;;;;;4859313;29;20215;-74
2023/11/06 07:12:39;;;;;;;2.28;1.88;;;10.20;99.90;;;;;;4852899;29;20311;-75
2023/11/06 07:15:06;;;;;;;2.05;1.95;;;10.20;99.90;;;;;;4860564;29;20672;-75
2023/11/06 07:17:34;;;;;;;2.60;2.40;;;10.20;99.90;;;;;;4857435;29;21133;-74
2023/11/06 07:20:02;;;;;;;1.85;1.85;;;10.30;99.90;;;;;;4862796;29;20214;-73
2023/11/06 07:22:29;;;;;;;1.95;1.95;;;10.30;99.90;;;;;;4862937;29;20240;-74
2023/11/06 07:25:00;;;;;;;2.63;2.40;;;10.30;99.90;;;;;;4857714;29;20245;-74
2023/11/06 07:27:27;;;;;;;5.05;3.90;;;10.30;99.90;;;;;;4861121;29;20215;-74
2023/11/06 07:29:53;;;;;;;2.10;1.88;;;10.40;99.90;;;;;;4859933;29;20219;-74
2023/11/06 07:32:20;;;;;;;3.35;2.83;;;10.40;99.90;;;;;;4860282;29;20214;-74
2023/11/06 07:34:49;;;;;;;1.60;1.55;;;10.40;99.90;;;;;;4859695;29;20254;-74
2023/11/06 07:37:17;;;;;;;2.20;2.10;;;10.50;99.90;;;;;;4856707;29;20304;-74
2023/11/06 07:39:45;;;;;;;1.85;1.75;;;10.50;99.90;;;;;;4856265;29;20222;-74
2023/11/06 07:42:11;;;;;;;4.30;1.95;;;10.50;99.90;;;;;;4857500;29;20222;-74
2023/11/06 07:44:41;;;;;;;2.13;2.03;;;10.50;99.90;;;;;;4860473;29;20788;-75
2023/11/06 07:47:08;;;;;;;5.65;2.55;;;10.50;99.90;;;;;;4861055;29;20219;-75
2023/11/06 07:49:35;;;;;;;2.08;1.95;;;10.60;99.90;;;;;;4862156;29;20208;-74
2023/11/06 07:52:07;;;;;;;2.53;2.33;;;10.60;99.90;;;;;;4857063;29;20210;-74
2023/11/06 07:54:38;;;;;;;2.63;2.30;;;10.60;99.90;;;;;;4857405;29;20712;-75
2023/11/06 07:57:05;;;;;;;2.88;1.92;;;10.70;99.90;;;;;;4854681;29;20215;-74
2023/11/06 07:59:32;;;;;;;2.08;1.85;;;10.70;99.90;;;;;;4861066;29;20223;-73
2023/11/06 08:02:00;;;;;;;2.28;2.28;;;10.80;99.90;;;;;;4860924;29;20231;-74
2023/11/06 08:04:27;;;;;;;2.65;2.05;;;10.80;99.90;;;;;;4861959;29;20249;-75
2023/11/06 08:06:54;;;;;;;2.53;2.42;;;10.80;99.90;;;;;;4855489;29;20237;-74
2023/11/06 08:09:21;;;;;;;1.88;1.88;;;10.80;99.90;;;;;;4859857;29;20676;-74
2023/11/06 08:11:49;;;;;;;2.97;2.70;;;10.80;99.90;;;;;;4854400;29;20220;-74
2023/11/06 08:14:18;;;;;;;10.32;2.30;;;10.80;99.90;;;;;;4861308;29;20720;-74
2023/11/06 08:16:45;;;;;;;2.80;2.25;;;10.90;99.90;;;;;;4860110;29;20218;-74
2023/11/06 08:19:12;;;;;;;3.90;2.25;;;10.80;99.90;;;;;;4860065;29;20598;-75
2023/11/06 08:21:39;;;;;;;1.95;1.90;;;10.80;99.90;;;;;;4857504;29;20239;-75
2023/11/06 08:24:07;;;;;;;3.05;2.38;;;10.80;99.90;;;;;;4859992;29;20216;-75
2023/11/06 08:26:34;;;;;;;2.47;2.38;;;10.90;99.90;;;;;;4859073;29;20227;-75
2023/11/06 08:29:02;;;;;;;2.10;2.00;;;10.90;99.90;;;;;;4859021;29;20216;-74
2023/11/06 08:31:29;;;;;;;3.38;2.20;;;10.90;99.90;;;;;;4857374;29;20216;-75
2023/11/06 08:33:56;;;;;;;2.20;2.10;;;10.90;99.90;;;;;;4859217;29;20268;-75
2023/11/06 08:36:23;;;;;;;1.95;1.80;;;10.90;99.90;;;;;;4853220;29;20689;-75
2023/11/06 08:38:50;;;;;;;3.13;2.92;;;10.90;99.90;;;;;;4860569;29;20298;-75
2023/11/06 08:41:16;;;;;;;3.50;2.22;;;10.90;99.90;;;;;;4857491;29;20212;-74
2023/11/06 08:43:43;;;;;;;2.70;2.50;;;10.80;99.90;;;;;;4858224;29;20307;-75
2023/11/06 08:46:11;;;;;;;3.35;3.03;;;10.80;99.90;;;;;;4855928;29;20246;-75
2023/11/06 08:48:41;;;;;;;6.43;2.90;;;10.80;99.90;;;;;;4860614;29;20215;-75
2023/11/06 08:51:08;;;;;;;2.45;2.35;;;10.80;99.90;;;;;;4858326;29;20211;-75
2023/11/06 08:53:35;;;;;;;2.38;2.17;;;10.80;99.90;;;;;;4860629;29;20733;-75
2023/11/06 08:56:02;;;;;;;2.42;2.05;;;10.80;99.90;;;;;;4859308;29;20251;-74
2023/11/06 08:58:29;;;;;;;3.53;3.22;;;10.80;99.90;;;;;;4860363;29;20680;-74
2023/11/06 09:00:56;;;;;;;1.80;1.70;;;10.80;99.90;;;;;;4852016;29;20216;-75
2023/11/06 09:03:26;;;;;;;8.50;2.60;;;10.90;99.90;;;;;;4854067;29;20216;-75
2023/11/06 09:05:53;;;;;;;2.13;2.03;;;10.90;99.90;;;;;;4858474;29;20227;-75
2023/11/06 09:08:20;;;;;;;8.68;4.03;;;10.90;99.90;;;;;;4855731;29;20211;-74
2023/11/06 09:10:46;;;;;;;2.35;2.22;;;11.00;99.90;;;;;;4858275;29;20564;-74
2023/11/06 09:13:13;;;;;;;5.22;2.65;;;11.00;99.90;;;;;;4859180;29;20215;-74
2023/11/06 09:15:40;;;;;;;2.10;2.00;;;11.00;99.90;;;;;;4859229;29;20247;-74
2023/11/06 09:18:07;;;;;;;6.13;4.15;;;11.00;99.90;;;;;;4855807;29;20303;-73
2023/11/06 09:20:35;;;;;;;2.30;2.20;;;11.00;99.90;;;;;;4858331;29;20216;-74
2023/11/06 09:23:02;;;;;;;2.58;2.47;;;11.00;99.90;;;;;;4859682;29;20219;-73
2023/11/06 09:25:29;;;;;;;2.60;2.25;;;11.00;99.90;;;;;;4859723;29;20244;-73
2023/11/06 09:27:55;;;;;;;3.05;2.58;;;11.00;99.90;;;;;;4856269;29;20564;-73
2023/11/06 09:30:22;;;;;;;2.83;1.90;;;11.10;99.90;;;;;;4857223;29;20212;-73
2023/11/06 09:32:49;;;;;;;4.00;3.63;;;11.10;99.90;;;;;;4861214;29;20275;-73
2023/11/06 09:35:16;;;;;;;3.42;2.28;;;11.20;99.90;;;;;;4859880;29;20228;-74
2023/11/06 09:37:44;;;;;;;2.97;2.80;;;11.30;99.90;;;;;;4860424;29;20299;-73
2023/11/06 09:40:20;;;;;;;3.53;3.30;;;11.30;99.90;;;;;;4854863;29;20994;-74
2023/11/06 09:42:48;;;;;;;4.63;2.60;;;11.40;99.90;;;;;;4854598;29;20482;-74
2023/11/06 09:45:16;;;;;;;3.50;2.50;;;11.40;99.90;;;;;;4855011;29;21106;-73
2023/11/06 09:47:48;;;;;;;5.57;4.00;;;11.50;99.90;;;;;;4858055;29;20537;-74
2023/11/06 09:50:18;;;;;;;2.10;2.00;;;11.50;99.90;;;;;;4858896;29;20966;-73
2023/11/06 09:52:47;;;;;;;1.83;1.77;;;11.60;99.90;;;;;;4850877;29;20465;-73
2023/11/06 09:55:18;;;;;;;1.70;1.70;;;11.60;99.90;;;;;;4861817;29;20565;-73
2023/11/06 09:57:45;;;;;;;1.80;1.70;;;11.60;99.90;;;;;;4862369;29;20469;-73
2023/11/06 10:00:16;;;;;;;2.20;2.00;;;11.70;99.90;;;;;;4858935;29;20473;-73
2023/11/06 10:02:43;;;;;;;1.70;1.70;;;11.70;99.90;;;;;;4855872;29;20474;-73
2023/11/06 10:05:13;;;;;;;3.07;1.63;;;11.70;99.90;;;;;;4861503;29;20515;-73
2023/11/06 10:07:41;;;;;;;1.63;1.63;;;11.70;99.90;;;;;;4862450;29;20469;-73
2023/11/06 10:10:17;;;;;;;2.23;1.90;;;11.70;99.90;;;;;;4861685;29;20501;-73
2023/11/06 10:12:44;;;;;;;2.10;1.53;;;11.70;99.90;;;;;;4862553;29;20501;-74
2023/11/06 10:15:12;;;;;;;2.30;1.70;;;11.80;99.90;;;;;;4862851;29;21017;-75
2023/11/06 10:17:39;;;;;;;3.00;2.30;;;11.80;99.90;;;;;;4856442;29;20465;-75
2023/11/06 10:20:13;;;;;;;2.30;1.47;;;11.70;99.90;;;;;;4862247;29;20560;-74
2023/11/06 10:22:54;;;;;;;2.20;2.03;;;11.70;99.90;;;;;;4861532;29;20477;-74
2023/11/06 10:25:27;;;;;;;2.93;2.10;;;11.60;99.90;;;;;;4855589;29;20494;-75
2023/11/06 10:27:54;;;;;;;1.70;1.70;;;11.60;99.90;;;;;;4850505;29;20469;-74
2023/11/06 10:30:21;;;;;;;1.90;1.90;;;11.60;99.90;;;;;;4862134;29;20476;-73
2023/11/06 10:32:48;;;;;;;2.37;1.30;;;11.60;99.90;;;;;;4856643;29;20477;-74
2023/11/06 10:35:17;;;;;;;1.73;1.63;;;11.70;99.90;;;;;;4860674;29;20640;-73
2023/11/06 10:37:45;;;;;;;2.30;2.10;;;11.70;99.90;;;;;;4857485;29;20525;-74
2023/11/06 10:40:13;;;;;;;1.83;1.73;;;11.60;99.90;;;;;;4859515;29;20480;-74
2023/11/06 10:42:43;;;;;;;1.90;1.77;;;11.70;99.90;;;;;;4855061;29;20546;-74
2023/11/06 10:45:13;;;;;;;7.10;1.63;;;11.60;99.90;;;;;;4856937;29;20497;-74
2023/11/06 10:47:45;;;;;;;1.67;1.67;;;11.60;99.90;;;;;;4854891;29;20498;-74
2023/11/06 10:50:17;;;;;;;1.73;1.63;;;11.50;99.90;;;;;;4857303;29;20485;-74
2023/11/06 10:52:49;;;;;;;1.50;1.50;;;11.40;99.90;;;;;;4857850;29;20528;-74
2023/11/06 10:55:17;;;;;;;2.03;1.37;;;11.40;99.90;;;;;;4857990;29;20501;-73
2023/11/06 10:57:50;;;;;;;4.15;1.35;;;11.40;99.90;;;;;;4858801;29;20477;-73
2023/11/06 11:00:19;;;;;;;1.80;1.30;;;11.50;99.90;;;;;;4858166;29;20211;-73
2023/11/06 11:02:49;;;;;;;1.80;0.97;;;11.50;99.90;;;;;;4858574;29;20505;-72
2023/11/06 11:05:18;;;;;;;1.00;1.00;;;11.40;99.90;;;;;;4854053;29;20501;-73
2023/11/06 11:07:47;;;;;;;1.40;1.17;;;11.50;99.90;;;;;;4852833;29;20493;-74
2023/11/06 11:10:17;;;;;;;1.27;0.93;;;11.50;99.90;;;;;;4857852;29;20506;-74
2023/11/06 11:12:48;;;;;;;0.97;0.93;;;11.60;99.90;;;;;;4852801;29;20966;-74
2023/11/06 11:15:15;;;;;;;1.00;1.00;;;11.60;99.90;;;;;;4881984;23;20514;-73
2023/11/06 11:17:56;;;;;;;1.20;1.20;;;11.70;99.90;;;;;;4868015;29;20464;-73
2023/11/06 11:20:23;;;;;;;2.00;1.87;;;11.80;99.90;;;;;;4868109;29;20479;-73
2023/11/06 11:23:06;;;;;;;1.33;1.20;;;11.80;99.90;;;;;;4875998;29;20957;-73
2023/11/06 11:25:55;;;;;;;5.03;1.50;;;11.90;99.90;;;;;;4860537;29;20496;-74
2023/11/06 11:28:24;;;;;;;2.50;2.00;;;11.90;99.90;;;;;;4856115;29;20503;-74
2023/11/06 11:30:51;;;;;;;1.20;1.17;;;11.90;99.90;;;;;;4843556;29;20469;-73
2023/11/06 11:33:53;;;;;;;0.93;0.93;;;11.90;99.90;;;;;;4852839;29;20465;-73
2023/11/06 11:36:30;;;;;;;1.40;1.30;;;11.90;99.90;;;;;;4853117;29;20910;-73
2023/11/06 11:38:58;;;;;;;5.50;1.50;;;11.90;99.90;;;;;;4848149;29;20485;-74
2023/11/06 11:41:25;;;;;;;1.80;1.17;;;12.00;99.90;;;;;;4851003;29;20470;-73
2023/11/06 11:44:06;;;;;;;1.70;1.00;;;12.00;99.90;;;;;;4854895;29;20492;-74
2023/11/06 11:46:52;;;;;;;2.07;1.00;;;12.10;99.90;;;;;;4855987;29;20489;-74
2023/11/06 11:49:49;;;;;;;2.10;0.90;;;12.20;99.90;;;;;;4853969;29;20560;-74
2023/11/06 11:52:37;;;;;;;1.00;1.00;;;12.20;99.90;;;;;;4855150;29;20468;-73
2023/11/06 11:55:31;;;;;;;1.33;1.03;;;12.30;99.90;;;;;;4851387;29;20493;-73
2023/11/06 11:58:06;;;;;;;1.00;1.00;;;12.40;99.90;;;;;;4848956;29;20480;-74
2023/11/06 12:00:36;;;;;;;2.43;1.37;;;12.30;99.90;;;;;;4856412;29;20981;-73
2023/11/06 12:03:05;;;;;;;2.70;1.30;;;12.20;99.90;;;;;;4851813;29;20500;-73
2023/11/06 12:05:32;;;;;;;1.10;1.10;;;12.20;99.90;;;;;;4847185;29;21318;-74
2023/11/06 12:07:59;;;;;;;4.30;1.43;;;12.20;99.90;;;;;;4855987;29;20497;-74
2023/11/06 12:10:28;;;;;;;1.20;1.10;;;12.20;99.90;;;;;;4855757;29;20998;-74
2023/11/06 12:12:57;;;;;;;0.80;0.80;;;12.10;99.90;;;;;;4854804;29;20477;-73
2023/11/06 12:15:31;;;;;;;1.30;1.30;;;12.10;99.90;;;;;;4854727;29;20583;-74
2023/11/06 12:18:06;;;;;;;2.40;2.00;;;12.00;99.90;;;;;;4855714;29;20465;-74
2023/11/06 12:20:34;;;;;;;2.87;1.80;;;12.00;99.90;;;;;;4855738;29;20533;-74
2023/11/06 12:23:02;;;;;;;6.00;1.83;;;12.00;99.90;;;;;;4852194;29;20469;-73
2023/11/06 12:25:30;;;;;;;2.43;1.83;;;11.90;99.90;;;;;;4850597;29;20576;-74
2023/11/06 12:28:03;;;;;;;3.07;2.20;;;12.00;99.90;;;;;;4853068;29;20508;-73
2023/11/06 12:30:30;;;;;;;1.60;1.53;;;12.00;99.90;;;;;;4853559;29;20477;-73
2023/11/06 12:33:08;;;;;;;3.10;1.97;;;12.00;99.90;;;;;;4855794;29;20569;-73
2023/11/06 12:35:38;;;;;;;7.47;3.50;;;12.10;99.90;;;;;;4848539;29;20500;-73
2023/11/06 12:38:04;;;;;;;3.00;2.80;;;12.10;99.90;;;;;;4848857;29;20461;-74
2023/11/06 12:40:31;;;;;;;2.10;2.00;;;12.10;99.90;;;;;;4855385;29;20496;-73
2023/11/06 12:43:00;;;;;;;3.00;2.60;;;12.20;99.90;;;;;;4855959;29;20484;-73
2023/11/06 12:45:31;;;;;;;5.67;4.50;;;12.20;99.90;;;;;;4849921;29;20581;-74
2023/11/06 12:48:00;;;;;;;4.63;3.40;;;12.20;99.90;;;;;;4848805;29;20584;-73
2023/11/06 12:50:29;;;;;;;1.97;1.97;;;12.40;99.90;;;;;;4848533;29;20477;-74
2023/11/06 12:52:55;;;;;;;4.20;2.60;;;12.40;99.90;;;;;;4850533;29;20490;-73
2023/11/06 12:55:22;;;;;;;2.97;2.07;;;12.40;99.90;;;;;;4851507;29;21287;-73
2023/11/06 12:57:50;;;;;;;2.27;2.17;;;12.40;99.90;;;;;;4847930;29;20461;-74
2023/11/06 13:00:23;;;;;;;3.27;2.97;;;12.40;99.90;;;;;;4849723;29;20473;-74
2023/11/06 13:02:51;;;;;;;3.17;2.97;;;12.40;99.90;;;;;;4855160;29;20461;-73
2023/11/06 13:05:20;;;;;;;2.43;2.33;;;12.30;99.90;;;;;;4846548;29;20500;-73
2023/11/06 13:07:51;;;;;;;3.40;2.80;;;12.40;99.90;;;;;;4857039;29;20854;-73
2023/11/06 13:10:18;;;;;;;2.60;2.50;;;12.30;99.90;;;;;;4846657;29;20481;-73
2023/11/06 13:12:45;;;;;;;2.83;2.73;;;12.30;99.90;;;;;;4856096;29;20469;-73
2023/11/06 13:15:12;;;;;;;2.90;2.70;;;12.30;99.90;;;;;;4853319;29;20497;-74
2023/11/06 13:17:39;;;;;;;3.40;2.47;;;12.30;99.90;;;;;;4851287;29;20468;-73
2023/11/06 13:20:24;;;;;;;4.30;2.83;;;12.40;99.90;;;;;;4853430;29;20473;-74
2023/11/06 13:22:55;;;;;;;2.83;2.63;;;12.30;99.90;;;;;;4851637;29;20481;-73
2023/11/06 13:25:23;;;;;;;2.77;2.40;;;12.30;99.90;;;;;;4852380;29;20579;-73
2023/11/06 13:27:51;;;;;;;2.20;2.10;;;12.30;99.90;;;;;;4852704;29;20488;-73
2023/11/06 13:30:18;;;;;;;2.83;2.50;;;12.30;99.90;;;;;;4855959;29;20866;-73
2023/11/06 13:32:45;;;;;;;2.40;2.20;;;12.20;99.90;;;;;;4858695;29;20476;-73
2023/11/06 13:35:13;;;;;;;2.60;2.53;;;12.20;99.90;;;;;;4853171;29;20577;-73
2023/11/06 13:37:40;;;;;;;3.47;3.00;;;12.20;99.90;;;;;;4859043;29;20473;-74
2023/11/06 13:40:18;;;;;;;3.30;3.10;;;12.20;99.90;;;;;;4860302;29;20468;-72
2023/11/06 13:42:45;;;;;;;4.23;3.90;;;12.20;99.90;;;;;;4854636;29;20502;-72
2023/11/06 13:45:12;;;;;;;2.93;2.73;;;12.20;99.90;;;;;;4854879;29;20496;-72
2023/11/06 13:47:39;;;;;;;3.30;3.00;;;12.20;99.90;;;;;;4857044;29;20572;-72
2023/11/06 13:50:21;;;;;;;6.33;3.20;;;12.20;99.90;;;;;;4856093;29;20974;-72
2023/11/06 13:52:50;;;;;;;5.87;3.67;;;12.20;99.90;;;;;;4859512;29;20465;-72
2023/11/06 13:55:30;;;;;;;3.10;3.00;;;12.20;99.90;;;;;;4857833;29;20515;-73
2023/11/06 13:57:57;;;;;;;3.00;2.90;;;12.20;99.90;;;;;;4851312;29;21211;-72
2023/11/06 14:00:32;;;;;;;3.20;3.00;;;12.10;99.90;;;;;;4851274;29;20470;-72
2023/11/06 14:03:01;;;;;;;3.97;3.53;;;12.10;99.90;;;;;;4849900;29;21932;-72
2023/11/06 14:05:29;;;;;;;3.00;2.90;;;12.10;99.90;;;;;;4850472;29;20498;-72
2023/11/06 14:07:58;;;;;;;6.53;5.67;;;12.10;99.90;;;;;;4846995;29;20501;-73
2023/11/06 14:10:32;;;;;;;3.53;3.20;;;12.10;99.90;;;;;;4859683;29;20468;-72
2023/11/06 14:12:59;;;;;;;5.60;3.17;;;12.10;99.90;;;;;;4848471;29;20556;-72
2023/11/06 14:15:26;;;;;;;5.03;3.47;;;12.10;99.90;;;;;;4859295;29;20579;-73
2023/11/06 14:17:54;;;;;;;2.90;2.77;;;12.00;99.90;;;;;;4858681;29;20458;-73
2023/11/06 14:20:25;;;;;;;10.57;6.43;;;12.00;99.90;;;;;;4846569;29;20462;-73
2023/11/06 14:22:53;;;;;;;6.20;4.23;;;12.00;99.90;;;;;;4856231;29;20537;-73
2023/11/06 14:25:21;;;;;;;11.97;6.83;;;11.90;99.90;;;;;;4858916;29;20500;-73
2023/11/06 14:27:50;;;;;;;3.77;3.47;;;11.90;99.90;;;;;;4854178;29;20503;-73
2023/11/06 14:30:17;;;;;;;3.10;2.77;;;11.90;99.90;;;;;;4859441;29;20466;-73
2023/11/06 14:32:44;;;;;;;17.10;7.90;;;11.90;99.90;;;;;;4849815;29;20889;-74
2023/11/06 14:35:11;;;;;;;4.53;3.20;;;11.90;99.90;;;;;;4852296;29;20520;-74
2023/11/06 14:37:39;;;;;;;5.93;4.83;;;11.90;99.90;;;;;;4851184;29;20818;-73
2023/11/06 14:40:13;;;;;;;3.17;3.07;;;11.90;99.90;;;;;;4855244;29;21087;-73
2023/11/06 14:42:40;;;;;;;3.07;2.93;;;11.80;99.90;;;;;;4856333;29;21500;-74
2023/11/06 14:45:11;;;;;;;22.00;9.87;;;11.80;99.90;;;;;;4852826;29;20564;-74
2023/11/06 14:47:40;;;;;;;3.93;3.60;;;11.80;99.90;;;;;;4859211;29;20528;-73
2023/11/06 14:50:08;;;;;;;3.50;3.23;;;11.80;99.90;;;;;;4855820;29;20820;-73
2023/11/06 14:52:38;;;;;;;9.17;4.90;;;11.80;99.90;;;;;;4853003;29;20485;-72
2023/11/06 14:55:08;;;;;;;4.90;4.30;;;11.80;99.90;;;;;;4852254;29;20506;-72
2023/11/06 14:57:35;;;;;;;6.27;4.83;;;11.80;99.90;;;;;;4853915;29;20469;-71
2023/11/06 15:00:03;;;;;;;6.00;2.93;;;11.80;99.90;;;;;;4852525;29;20525;-74
2023/11/06 15:02:31;;;;;;;2.93;2.73;;;11.80;99.90;;;;;;4848057;29;20496;-73
2023/11/06 15:04:58;;;;;;;5.53;3.23;;;11.80;99.90;;;;;;4858540;29;20514;-74
2023/11/06 15:07:25;;;;;;;4.47;3.90;;;11.80;99.90;;;;;;4850305;29;20524;-72
2023/11/06 15:09:52;;;;;;;2.77;2.17;;;11.80;99.90;;;;;;4847996;29;21434;-72
2023/11/06 15:12:18;;;;;;;3.00;2.37;;;11.80;99.90;;;;;;4854484;29;20476;-72
2023/11/06 15:14:47;;;;;;;6.27;3.30;;;11.80;99.90;;;;;;4851721;29;20488;-71
2023/11/06 15:17:14;;;;;;;3.53;2.20;;;11.80;99.90;;;;;;4857847;29;20469;-71
2023/11/06 15:19:43;;;;;;;6.97;2.77;;;11.80;99.90;;;;;;4853655;29;20473;-71
2023/11/06 15:22:10;;;;;;;5.07;4.00;;;11.80;99.90;;;;;;4858408;29;20477;-73
2023/11/06 15:24:36;;;;;;;15.67;10.03;;;11.80;99.90;;;;;;4850741;29;20550;-72
2023/11/06 15:27:05;;;;;;;5.57;3.47;;;11.80;99.90;;;;;;4852039;29;20880;-72
2023/11/06 15:29:32;;;;;;;4.67;4.03;;;11.80;99.90;;;;;;4851968;29;20518;-72
2023/11/06 15:31:58;;;;;;;3.80;1.90;;;11.80;99.90;;;;;;4852599;29;20469;-72
2023/11/06 15:34:25;;;;;;;2.13;1.93;;;11.70;99.90;;;;;;4850033;29;20481;-72
2023/11/06 15:36:53;;;;;;;2.40;2.17;;;11.70;99.90;;;;;;4849673;29;20519;-72
2023/11/06 15:39:21;;;;;;;2.60;2.07;;;11.70;99.90;;;;;;4852843;29;20477;-72
2023/11/06 15:41:48;;;;;;;2.60;2.40;;;11.70;99.90;;;;;;4852657;29;20497;-72
2023/11/06 15:44:14;;;;;;;9.40;5.47;;;11.80;99.90;;;;;;4855153;29;20466;-72
2023/11/06 15:46:44;;;;;;;9.93;7.07;;;11.70;99.90;;;;;;4849081;29;20884;-73
2023/11/06 15:49:13;;;;;;;4.10;3.50;;;11.70;99.90;;;;;;4850369;29;20499;-71
2023/11/06 15:51:41;;;;;;;2.07;1.97;;;11.70;99.90;;;;;;4856432;29;20918;-72
2023/11/06 15:54:11;;;;;;;3.03;2.00;;;11.60;99.90;;;;;;4855828;29;20479;-72
2023/11/06 15:56:37;;;;;;;6.28;4.22;;;11.50;99.90;;;;;;4848133;29;20497;-72
2023/11/06 15:59:05;;;;;;;3.80;3.50;;;11.50;99.90;;;;;;4847565;29;20291;-73
2023/11/06 16:01:32;;;;;;;4.03;2.97;;;11.40;99.90;;;;;;4855083;29;20501;-72
2023/11/06 16:03:58;;;;;;;3.40;3.10;;;11.40;99.90;;;;;;4855168;29;20882;-73
2023/11/06 16:06:25;;;;;;;3.30;3.10;;;11.30;99.90;;;;;;4854267;29;20243;-73
2023/11/06 16:08:52;;;;;;;4.03;2.83;;;11.20;99.90;;;;;;4853410;29;20237;-71
2023/11/06 16:11:20;;;;;;;6.85;4.97;;;11.20;99.90;;;;;;4853587;29;20584;-71
2023/11/06 16:13:48;;;;;;;4.63;2.70;;;11.10;99.90;;;;;;4854319;29;20218;-71
2023/11/06 16:16:15;;;;;;;7.30;3.67;;;11.10;99.90;;;;;;4854397;29;20243;-73
2023/11/06 16:18:42;;;;;;;11.77;7.18;;;11.10;99.90;;;;;;4858364;29;20226;-73
2023/11/06 16:21:09;;;;;;;4.60;3.80;;;11.10;99.90;;;;;;4851086;29;20276;-71
2023/11/06 16:23:39;;;;;;;4.32;3.83;;;11.10;99.90;;;;;;4855409;29;20218;-71
2023/11/06 16:26:06;;;;;;;2.90;2.75;;;11.10;99.90;;;;;;4857268;29;20265;-72
2023/11/06 16:28:35;;;;;;;7.65;4.40;;;11.00;99.90;;;;;;4853491;29;20231;-72
2023/11/06 16:31:03;;;;;;;22.48;11.20;;;11.00;99.90;;;;;;4856198;29;20219;-74
2023/11/06 16:33:29;;;;;;;6.15;4.35;;;11.00;99.90;;;;;;4852215;29;20218;-73
2023/11/06 16:35:56;;;;;;;16.45;10.13;;;11.00;99.90;;;;;;4854287;29;20231;-73
2023/11/06 16:38:23;;;;;;;17.67;9.55;;;11.00;99.90;;;;;;4850596;29;20203;-74
2023/11/06 16:40:51;;;;;;;11.07;6.15;;;11.00;99.90;;;;;;4854740;29;20242;-74
2023/11/06 16:43:18;;;;;;;2.47;2.38;;;11.00;99.90;;;;;;4857612;29;20235;-73
2023/11/06 16:45:46;;;;;;;6.55;4.25;;;11.00;99.90;;;;;;4858344;29;20295;-74
2023/11/06 16:48:13;;;;;;;19.65;10.40;;;11.00;99.90;;;;;;4852738;29;20244;-73
2023/11/06 16:50:40;;;;;;;21.48;11.27;;;11.10;99.90;;;;;;4853261;29;20220;-73
2023/11/06 16:53:06;;;;;;;5.63;4.22;;;11.00;99.90;;;;;;4849321;29;20553;-73
2023/11/06 16:55:33;;;;;;;18.88;9.02;;;11.00;99.90;;;;;;4855304;29;20253;-73
2023/11/06 16:58:00;;;;;;;6.13;5.38;;;11.00;99.90;;;;;;4853593;29;20207;-73
2023/11/06 17:00:27;;;;;;;8.20;5.57;;;11.00;99.90;;;;;;4855918;29;20215;-73
2023/11/06 17:02:55;;;;;;;10.20;6.10;;;11.00;99.90;;;;;;4854707;29;20212;-73
2023/11/06 17:05:23;;;;;;;3.25;2.40;;;11.00;99.90;;;;;;4860804;29;20712;-73
2023/11/06 17:07:51;;;;;;;24.60;15.27;;;11.00;99.90;;;;;;4853470;29;20231;-73
2023/11/06 17:10:18;;;;;;;7.85;7.15;;;11.00;99.90;;;;;;4861211;29;20218;-73
2023/11/06 17:12:45;;;;;;;11.68;6.45;;;11.00;99.90;;;;;;4861457;29;20271;-73
2023/11/06 17:15:12;;;;;;;5.43;4.05;;;11.00;99.90;;;;;;4882344;23;20242;-76
2023/11/06 17:17:39;;;;;;;2.60;2.50;;;11.00;99.90;;;;;;4866263;29;20214;-75
2023/11/06 17:20:10;;;;;;;9.48;6.18;;;11.00;99.90;;;;;;4859144;29;20230;-76
2023/11/06 17:22:37;;;;;;;3.70;3.17;;;11.10;99.90;;;;;;4859836;29;20211;-76
2023/11/06 17:25:05;;;;;;;7.68;5.00;;;11.00;99.90;;;;;;4861241;29;20238;-76
2023/11/06 17:27:32;;;;;;;5.97;5.32;;;11.10;99.90;;;;;;4857764;29;20226;-75
2023/11/06 17:29:59;;;;;;;3.53;2.78;;;11.10;99.90;;;;;;4858981;29;20219;-76
2023/11/06 17:32:26;;;;;;;3.33;3.22;;;11.10;99.90;;;;;;4856700;29;20214;-76
2023/11/06 17:34:53;;;;;;;5.07;3.58;;;11.10;99.90;;;;;;4857746;29;20284;-76
2023/11/06 17:37:22;;;;;;;1.85;1.83;;;11.10;99.90;;;;;;4859111;29;20212;-76
2023/11/06 17:39:48;;;;;;;3.20;3.00;;;11.10;99.90;;;;;;4856925;29;20212;-76
2023/11/06 17:42:15;;;;;;;2.10;1.90;;;11.10;99.90;;;;;;4853834;29;20231;-76
2023/11/06 17:44:42;;;;;;;2.97;1.92;;;11.10;99.90;;;;;;4857597;29;20680;-75
2023/11/06 17:47:09;;;;;;;1.90;1.75;;;11.10;99.90;;;;;;4858595;29;20215;-76
2023/11/06 17:49:36;;;;;;;2.50;2.33;;;11.10;99.90;;;;;;4862750;29;20229;-77
2023/11/06 17:52:03;;;;;;;2.95;2.38;;;11.10;99.90;;;;;;4859852;29;20246;-76
2023/11/06 17:54:31;;;;;;;2.53;2.40;;;11.00;99.90;;;;;;4863543;29;20216;-75
2023/11/06 17:56:58;;;;;;;1.60;1.55;;;11.00;99.90;;;;;;4860325;29;20235;-76